Beckley, WV

2:15 PM EDT on April 19, 2018 (GMT -0400)
dialysisrn | | Change Station
Active Advisory: Wind Advisory

Elev 2388 ft 37.81 °N, 81.20 °W | Updated 52 seconds ago

Overcast
Overcast
37.2 °F
Feels Like 33 °F
N
5.4
Wind Variable Wind from WNW
Gusts 13.6 mph

Today
High -- | Low -- °F
--% Chance of Precip.
Yesterday
High -- | Low -- °F
Precip. -- in
Pressure 30.10 in
Visibility 10.0 miles
Clouds Overcast 1700 ft
Windchill 33 °F
Dew Point 31 °F
Humidity 77%
Rainfall 0.18 in
Snow Depth Not available.
6:44 AM 8:04 PM
Waxing Crescent, 17% visible
METAR KBKW 191751Z AUTO 32016G26KT 10SM OVC017 02/M02 A3008 RMK AO2 PK WND 32026/1743 SLP191 60000 T00171017 10050 20006 51031 TSNO
Pressure 30.10 in
Visibility 10.0 miles
Clouds Overcast 1700 ft
Windchill 33 °F
Dew Point 31 °F
Humidity 77%
Rainfall 0.18 in
Snow Depth Not available.
6:44 AM 8:04 PM
Waxing Crescent, 17% visible
METAR KBKW 191751Z AUTO 32016G26KT 10SM OVC017 02/M02 A3008 RMK AO2 PK WND 32026/1743 SLP191 60000 T00171017 10050 20006 51031 TSNO

Get Your Daily Forecast Email!

Thanks for signing up!

Be on the lookout for a verification email in your inbox.

You'll start receiving severe weather alerts in your inbox..

×

10-Day Weather Forecast

Almanac

Astronomy

Apr. 19, 2018 Rise Set
Actual Time
Civil Twilight
Nautical Twilight
Astronomical Twilight
Moon
Length of Visible Light
Length of Day
Tomorrow will be .
, % of the Moon is Illuminated

Today's Extremes

State Highs State Lows

Community

WunderPhotos

Category 6

Welcome to Category 6. This is the collective home for Weather Underground's featured writeups by Dr. Jeff Masters (right), Bob Henson (left), Chris Burt, and other regular contributors.

Nearby

Air Quality

  Air Quality AQ Index Pollutant
Not available.

Snow Depth

Station Depth Elevation

Earthquake Activity

City Distance Mag. Time & Date
Minimum magnitude displayed is 2.5.

Coastal Water Temperatures

Place Temperature

Stations

Nearby Weather Stations

Station Location Temp. Windchill Dew Point Humidity Wind Precip. Elev Updated Type
                   

Watches & Warnings

Wind Advisory
Issued: 10:40 AM EDT Apr. 19, 2018 – National Weather Service

... Wind Advisory remains in effect until 6 am EDT Friday...

* winds... northwest 10 to 20 mph with gusts up to 48 mph...
mainly along the highest ridges.

* Timing... through tonight.

* Impacts... gusty winds will blow around unsecured objects. Tree
limbs could be blown down and a few power outages may result.

Precautionary/preparedness actions...

A Wind Advisory means that wind gusts of at least 46 mph are
expected. Winds this strong can make driving difficult...
especially for high profile vehicles. Use extra caution.